createdAt,value
2022-09-04T00:00:53.752Z,17.3
2022-09-04T00:01:53.756Z,17.38
2022-09-04T00:02:53.773Z,17.35
2022-09-04T00:03:54.221Z,17.37
2022-09-04T00:04:54.377Z,17.32
2022-09-04T00:05:56.528Z,17.27
2022-09-04T00:06:53.768Z,17.3
2022-09-04T00:07:53.789Z,17.28
2022-09-04T00:08:54.329Z,17.22
2022-09-04T00:09:53.768Z,17.28
2022-09-04T00:10:56.813Z,17.27
2022-09-04T00:11:53.772Z,17.3
2022-09-04T00:12:53.793Z,17.32
2022-09-04T00:13:53.801Z,17.3
2022-09-04T00:14:53.788Z,17.24
2022-09-04T00:15:54.018Z,17.23
2022-09-04T00:16:57.004Z,17.23
2022-09-04T00:17:53.802Z,17.23
2022-09-04T00:18:53.794Z,17.2
2022-09-04T00:19:53.784Z,17.2
2022-09-04T00:20:53.793Z,17.12
2022-09-04T00:21:56.562Z,17.13
2022-09-04T00:22:53.804Z,17.1
2022-09-04T00:23:53.799Z,17.16
2022-09-04T00:24:53.873Z,17.16
2022-09-04T00:25:53.802Z,17.16
2022-09-04T00:26:53.801Z,17.13
2022-09-04T00:27:53.831Z,17.12
2022-09-04T00:28:53.809Z,17.12
2022-09-04T00:29:53.803Z,17.12
2022-09-04T00:30:54.120Z,17.16
2022-09-04T00:31:53.815Z,17.1
2022-09-04T00:32:57.480Z,17.14
2022-09-04T00:33:53.809Z,17.1
2022-09-04T00:34:53.812Z,17.09
2022-09-04T00:35:53.825Z,17.1
2022-09-04T00:36:55.001Z,17.12
2022-09-04T00:37:53.832Z,17.16
2022-09-04T00:38:53.826Z,17.09
2022-09-04T00:39:54.156Z,17.13
2022-09-04T00:40:53.817Z,17.1
2022-09-04T00:41:53.818Z,17.05
2022-09-04T00:42:54.212Z,17.12
2022-09-04T00:43:56.846Z,17.07
2022-09-04T00:44:55.360Z,17.01
2022-09-04T00:45:54.036Z,17.04
2022-09-04T00:46:53.834Z,17.09
2022-09-04T00:47:53.870Z,17.09
2022-09-04T00:48:53.879Z,17.04
2022-09-04T00:49:53.839Z,17.05
2022-09-04T00:50:53.860Z,16.99
2022-09-04T00:51:53.841Z,17.14
2022-09-04T00:53:00.824Z,17.1
2022-09-04T00:53:53.850Z,17.12
2022-09-04T00:54:56.622Z,17.1
2022-09-04T00:55:53.855Z,17.04
2022-09-04T00:56:53.848Z,16.97
2022-09-04T00:57:53.853Z,17.05
2022-09-04T00:58:53.857Z,17.07
2022-09-04T00:59:53.919Z,17.07
2022-09-04T01:00:54.115Z,17.07
2022-09-04T01:01:54.467Z,16.99
2022-09-04T01:02:54.414Z,17.01
2022-09-04T01:03:54.045Z,17.02
2022-09-04T01:04:53.963Z,17.04
2022-09-04T01:05:54.085Z,16.91
2022-09-04T01:06:53.868Z,17.04
2022-09-04T01:07:53.870Z,17.04
2022-09-04T01:09:00.619Z,16.92
2022-09-04T01:09:53.882Z,16.86
2022-09-04T01:10:53.888Z,16.83
2022-09-04T01:11:53.878Z,16.89
2022-09-04T01:12:53.885Z,16.91
2022-09-04T01:13:54.166Z,16.91
2022-09-04T01:14:57.609Z,16.84
2022-09-04T01:15:53.894Z,16.77
2022-09-04T01:16:54.173Z,16.83
2022-09-04T01:17:53.894Z,16.69
2022-09-04T01:18:53.897Z,16.73
2022-09-04T01:19:53.895Z,16.68
2022-09-04T01:20:53.892Z,16.68
2022-09-04T01:21:54.696Z,16.64
2022-09-04T01:22:53.996Z,16.55
2022-09-04T01:23:53.992Z,16.57
2022-09-04T01:24:53.917Z,16.68
2022-09-04T01:25:53.920Z,16.51
2022-09-04T01:26:53.899Z,16.49
2022-09-04T01:27:53.909Z,16.47
2022-09-04T01:28:53.914Z,16.51
2022-09-04T01:29:53.914Z,16.55
2022-09-04T01:30:53.914Z,16.47
2022-09-04T01:31:54.142Z,16.58
2022-09-04T01:32:53.914Z,16.61
2022-09-04T01:33:53.914Z,16.54
2022-09-04T01:34:53.919Z,16.54
2022-09-04T01:35:53.918Z,16.5
2022-09-04T01:36:55.686Z,16.49
2022-09-04T01:37:56.690Z,16.54
2022-09-04T01:38:53.925Z,16.57
2022-09-04T01:39:54.115Z,16.5
2022-09-04T01:40:53.933Z,16.49
2022-09-04T01:41:53.930Z,16.44
2022-09-04T01:42:54.233Z,16.5
2022-09-04T01:43:53.955Z,16.4
2022-09-04T01:44:53.949Z,16.46
2022-09-04T01:45:54.105Z,16.47
2022-09-04T01:46:53.937Z,16.47
2022-09-04T01:47:53.932Z,16.39
2022-09-04T01:48:57.086Z,16.41
2022-09-04T01:49:53.946Z,16.47
2022-09-04T01:50:53.942Z,16.47
2022-09-04T01:51:53.946Z,16.54
2022-09-04T01:52:53.950Z,16.55
2022-09-04T01:53:54.458Z,16.5
2022-09-04T01:54:53.950Z,16.43
2022-09-04T01:55:53.952Z,16.47
2022-09-04T01:56:54.936Z,16.55
2022-09-04T01:57:53.959Z,16.47
2022-09-04T01:58:53.984Z,16.46
2022-09-04T01:59:58.282Z,16.43
2022-09-04T02:00:57.889Z,16.44
2022-09-04T02:01:54.132Z,16.5
2022-09-04T02:02:57.604Z,16.46
2022-09-04T02:03:53.984Z,16.46
2022-09-04T02:04:53.968Z,16.29
2022-09-04T02:05:53.964Z,16.41
2022-09-04T02:06:53.968Z,16.37
2022-09-04T02:07:53.975Z,16.32
2022-09-04T02:08:53.990Z,16.39
2022-09-04T02:09:58.341Z,16.36
2022-09-04T02:10:57.033Z,16.25
2022-09-04T02:11:59.257Z,16.29
2022-09-04T02:12:53.983Z,16.28
2022-09-04T02:13:54.005Z,16.31
2022-09-04T02:14:53.990Z,16.36
2022-09-04T02:15:54.065Z,16.13
2022-09-04T02:16:54.101Z,16.22
2022-09-04T02:17:54.027Z,16.18
2022-09-04T02:18:54.092Z,16.24
2022-09-04T02:19:53.998Z,16.17
2022-09-04T02:20:53.992Z,16.22
2022-09-04T02:21:57.083Z,16.16
2022-09-04T02:22:53.998Z,16.1
2022-09-04T02:23:54.167Z,16.06
2022-09-04T02:24:54.004Z,16.06
2022-09-04T02:25:54.033Z,16.16
2022-09-04T02:26:57.030Z,16.06
2022-09-04T02:27:54.008Z,15.99
2022-09-04T02:28:54.028Z,16.02
2022-09-04T02:29:54.032Z,15.94
2022-09-04T02:30:59.042Z,16
2022-09-04T02:31:54.257Z,15.99
2022-09-04T02:32:56.795Z,15.94
2022-09-04T02:33:54.032Z,16.02
2022-09-04T02:34:54.027Z,15.92
2022-09-04T02:35:54.015Z,15.96
2022-09-04T02:36:54.932Z,15.98
2022-09-04T02:37:56.940Z,15.92
2022-09-04T02:38:54.045Z,15.98
2022-09-04T02:39:54.349Z,16
2022-09-04T02:40:54.068Z,16
2022-09-04T02:41:54.050Z,16
2022-09-04T02:42:54.036Z,16.09
2022-09-04T02:43:56.840Z,16.03
2022-09-04T02:44:54.297Z,16.05
2022-09-04T02:45:54.049Z,16.13
2022-09-04T02:46:54.299Z,16.08
2022-09-04T02:47:54.048Z,16.09
2022-09-04T02:48:55.580Z,16.02
2022-09-04T02:49:54.052Z,16.05
2022-09-04T02:50:54.053Z,16.05
2022-09-04T02:51:54.048Z,16
2022-09-04T02:52:54.055Z,16.05
2022-09-04T02:53:55.002Z,15.99
2022-09-04T02:54:56.802Z,15.92
2022-09-04T02:55:54.053Z,15.99
2022-09-04T02:56:54.059Z,16.05
2022-09-04T02:57:56.692Z,15.99
2022-09-04T02:58:54.105Z,15.98
2022-09-04T02:59:57.070Z,15.91
2022-09-04T03:00:54.467Z,15.94
2022-09-04T03:01:55.159Z,15.96
2022-09-04T03:02:54.064Z,16.02
2022-09-04T03:03:54.085Z,16.03
2022-09-04T03:04:54.135Z,16
2022-09-04T03:05:54.095Z,15.96
2022-09-04T03:06:54.072Z,16.03
2022-09-04T03:07:54.094Z,15.96
2022-09-04T03:08:57.836Z,15.99
2022-09-04T03:09:54.093Z,16.05
2022-09-04T03:10:57.084Z,16.03
2022-09-04T03:11:54.094Z,15.98
2022-09-04T03:12:54.209Z,16
2022-09-04T03:13:54.139Z,15.98
2022-09-04T03:14:54.110Z,16.05
2022-09-04T03:15:54.276Z,16
2022-09-04T03:16:54.266Z,15.91
2022-09-04T03:17:56.194Z,15.99
2022-09-04T03:18:54.102Z,15.96
2022-09-04T03:19:54.119Z,15.9
2022-09-04T03:20:54.104Z,15.96
2022-09-04T03:21:57.155Z,16.02
2022-09-04T03:22:54.105Z,16.03
2022-09-04T03:23:54.104Z,15.96
2022-09-04T03:24:54.117Z,15.88
2022-09-04T03:25:54.114Z,15.91
2022-09-04T03:26:54.111Z,15.92
2022-09-04T03:27:54.130Z,15.94
2022-09-04T03:28:54.128Z,15.91
2022-09-04T03:29:54.118Z,15.92
2022-09-04T03:30:54.116Z,15.91
2022-09-04T03:31:54.425Z,16
2022-09-04T03:32:54.131Z,16.02
2022-09-04T03:33:54.418Z,15.91
2022-09-04T03:34:55.293Z,15.88
2022-09-04T03:35:54.908Z,15.83
2022-09-04T03:36:54.125Z,15.84
2022-09-04T03:37:54.089Z,15.83
2022-09-04T03:38:55.625Z,15.66
2022-09-04T03:39:54.457Z,15.73
2022-09-04T03:40:54.129Z,15.67
2022-09-04T03:41:54.140Z,15.67
2022-09-04T03:42:54.141Z,15.73
2022-09-04T03:43:54.138Z,15.73
2022-09-04T03:44:57.052Z,15.83
2022-09-04T03:45:54.154Z,15.88
2022-09-04T03:46:54.455Z,15.69
2022-09-04T03:47:54.216Z,15.83
2022-09-04T03:48:54.152Z,15.81
2022-09-04T03:49:54.156Z,15.8
2022-09-04T03:50:54.147Z,15.78
2022-09-04T03:51:54.305Z,15.76
2022-09-04T03:52:54.158Z,15.7
2022-09-04T03:53:54.021Z,15.69
2022-09-04T03:54:54.657Z,15.66
2022-09-04T03:55:54.167Z,15.73
2022-09-04T03:56:54.164Z,15.76
2022-09-04T03:57:54.160Z,15.78
2022-09-04T03:58:54.167Z,15.81
2022-09-04T03:59:54.205Z,15.76
2022-09-04T04:00:54.342Z,15.7
2022-09-04T04:01:54.178Z,15.75
2022-09-04T04:02:54.395Z,15.75
2022-09-04T04:03:54.182Z,15.78
2022-09-04T04:04:55.345Z,15.76
2022-09-04T04:05:54.179Z,15.8
2022-09-04T04:06:54.186Z,15.84
2022-09-04T04:07:54.178Z,15.83
2022-09-04T04:08:54.021Z,15.81
2022-09-04T04:09:54.205Z,15.78
2022-09-04T04:10:54.191Z,15.81
2022-09-04T04:11:54.187Z,15.73
2022-09-04T04:12:54.569Z,15.76
2022-09-04T04:13:54.188Z,15.7
2022-09-04T04:14:54.221Z,15.75
2022-09-04T04:15:57.462Z,15.67
2022-09-04T04:17:00.848Z,15.72
2022-09-04T04:17:54.221Z,15.62
2022-09-04T04:18:54.200Z,15.66
2022-09-04T04:19:54.217Z,15.73
2022-09-04T04:20:54.238Z,15.6
2022-09-04T04:21:54.213Z,15.65
2022-09-04T04:22:54.207Z,15.66
2022-09-04T04:23:54.207Z,15.65
2022-09-04T04:24:54.235Z,15.67
2022-09-04T04:25:57.252Z,15.54
2022-09-04T04:26:59.109Z,15.57
2022-09-04T04:27:56.348Z,15.59
2022-09-04T04:28:54.218Z,15.57
2022-09-04T04:29:54.237Z,15.65
2022-09-04T04:30:54.217Z,15.55
2022-09-04T04:31:54.384Z,15.57
2022-09-04T04:32:54.229Z,15.51
2022-09-04T04:33:54.229Z,15.59
2022-09-04T04:34:57.287Z,15.55
2022-09-04T04:35:54.251Z,15.51
2022-09-04T04:36:54.231Z,15.54
2022-09-04T04:38:01.746Z,15.6
2022-09-04T04:38:54.354Z,15.55
2022-09-04T04:39:54.494Z,15.6
2022-09-04T04:40:54.371Z,15.59
2022-09-04T04:41:54.285Z,15.59
2022-09-04T04:42:54.243Z,15.57
2022-09-04T04:43:54.258Z,15.59
2022-09-04T04:44:54.258Z,15.51
2022-09-04T04:45:54.242Z,15.59
2022-09-04T04:46:54.472Z,15.59
2022-09-04T04:47:54.244Z,15.44
2022-09-04T04:48:57.397Z,15.59
2022-09-04T04:49:54.273Z,15.52
2022-09-04T04:50:54.251Z,15.5
2022-09-04T04:51:54.389Z,15.55
2022-09-04T04:52:54.253Z,15.5
2022-09-04T04:53:57.711Z,15.62
2022-09-04T04:54:54.307Z,15.52
2022-09-04T04:55:54.265Z,15.48
2022-09-04T04:56:54.265Z,15.52
2022-09-04T04:57:54.176Z,15.59
2022-09-04T04:58:54.267Z,15.51
2022-09-04T04:59:56.122Z,15.45
2022-09-04T05:00:54.269Z,15.45
2022-09-04T05:01:54.737Z,15.47
2022-09-04T05:02:54.514Z,15.51
2022-09-04T05:03:54.282Z,15.55
2022-09-04T05:04:57.307Z,15.48
2022-09-04T05:05:54.291Z,15.54
2022-09-04T05:06:54.281Z,15.51
2022-09-04T05:07:54.278Z,15.62
2022-09-04T05:08:54.290Z,15.54
2022-09-04T05:09:54.302Z,15.51
2022-09-04T05:10:57.129Z,15.55
2022-09-04T05:11:54.289Z,15.66
2022-09-04T05:12:54.288Z,15.6
2022-09-04T05:13:57.264Z,15.72
2022-09-04T05:14:54.325Z,15.78
2022-09-04T05:16:21.240Z,15.67
2022-09-04T05:17:02.875Z,15.8
2022-09-04T05:17:54.746Z,15.76
2022-09-04T05:18:54.304Z,15.73
2022-09-04T05:19:56.973Z,15.81
2022-09-04T05:20:54.315Z,15.78
2022-09-04T05:21:57.396Z,15.65
2022-09-04T05:22:54.306Z,15.85
2022-09-04T05:23:54.308Z,15.8
2022-09-04T05:24:58.617Z,15.83
2022-09-04T05:25:54.310Z,15.88
2022-09-04T05:26:57.156Z,15.88
2022-09-04T05:27:54.324Z,15.84
2022-09-04T05:28:54.321Z,15.94
2022-09-04T05:29:54.316Z,15.94
2022-09-04T05:30:54.520Z,15.92
2022-09-04T05:31:54.317Z,15.99
2022-09-04T05:32:54.325Z,16.05
2022-09-04T05:33:54.324Z,16.06
2022-09-04T05:34:54.332Z,16
2022-09-04T05:35:57.550Z,16.06
2022-09-04T05:36:55.375Z,16.16
2022-09-04T05:37:57.964Z,16.09
2022-09-04T05:38:54.365Z,16.13
2022-09-04T05:39:54.643Z,16.09
2022-09-04T05:40:54.336Z,16.16
2022-09-04T05:41:54.334Z,16.06
2022-09-04T05:42:54.342Z,16.08
2022-09-04T05:43:54.342Z,16.1
2022-09-04T05:44:54.351Z,16.09
2022-09-04T05:45:54.348Z,16.12
2022-09-04T05:46:56.746Z,16.06
2022-09-04T05:47:54.356Z,16.13
2022-09-04T05:48:57.128Z,16.16
2022-09-04T05:49:54.355Z,16.1
2022-09-04T05:50:54.350Z,16.22
2022-09-04T05:51:54.220Z,16.13
2022-09-04T05:52:54.362Z,16.22
2022-09-04T05:53:56.202Z,16.25
2022-09-04T05:54:54.475Z,16.25
2022-09-04T05:55:54.373Z,16.32
2022-09-04T05:56:54.366Z,16.36
2022-09-04T05:57:54.360Z,16.39
2022-09-04T05:58:54.366Z,16.37
2022-09-04T05:59:54.384Z,16.29
2022-09-04T06:00:54.372Z,16.29
2022-09-04T06:01:56.887Z,16.25
2022-09-04T06:02:54.607Z,16.43
2022-09-04T06:03:54.376Z,16.31
2022-09-04T06:04:54.384Z,16.41
2022-09-04T06:05:54.385Z,16.44
2022-09-04T06:06:54.377Z,16.39
2022-09-04T06:07:54.396Z,16.31
2022-09-04T06:08:54.385Z,16.41
2022-09-04T06:09:54.392Z,16.44
2022-09-04T06:10:54.396Z,16.5
2022-09-04T06:11:54.414Z,16.54
2022-09-04T06:12:54.392Z,16.62
2022-09-04T06:13:54.395Z,16.62
2022-09-04T06:14:54.409Z,16.69
2022-09-04T06:15:54.601Z,16.68
2022-09-04T06:16:54.399Z,16.77
2022-09-04T06:17:54.403Z,16.87
2022-09-04T06:18:54.398Z,16.82
2022-09-04T06:19:54.406Z,17.02
2022-09-04T06:20:54.414Z,17.01
2022-09-04T06:21:54.408Z,17.24
2022-09-04T06:23:03.479Z,17.3
2022-09-04T06:23:54.411Z,17.31
2022-09-04T06:24:54.413Z,17.38
2022-09-04T06:25:54.485Z,17.47
2022-09-04T06:26:54.417Z,17.71
2022-09-04T06:27:54.408Z,17.97
2022-09-04T06:28:54.415Z,18.08
2022-09-04T06:29:54.462Z,18.3
2022-09-04T06:30:54.668Z,18.48
2022-09-04T06:31:57.446Z,18.63
2022-09-04T06:32:54.841Z,18.81
2022-09-04T06:33:54.457Z,18.86
2022-09-04T06:34:54.433Z,19.04
2022-09-04T06:35:54.432Z,19.09
2022-09-04T06:36:55.302Z,19.38
2022-09-04T06:37:54.446Z,19.41
2022-09-04T06:38:54.433Z,19.63
2022-09-04T06:39:54.821Z,19.81
2022-09-04T06:40:54.438Z,19.94
2022-09-04T06:41:54.557Z,19.96
2022-09-04T06:42:57.635Z,20.1
2022-09-04T06:43:58.844Z,20.15
2022-09-04T06:44:54.450Z,20.39
2022-09-04T06:45:56.808Z,20.52
2022-09-04T06:46:54.593Z,20.64
2022-09-04T06:47:54.611Z,20.74
2022-09-04T06:48:54.452Z,20.74
2022-09-04T06:49:54.482Z,20.93
2022-09-04T06:50:54.451Z,21.03
2022-09-04T06:51:54.469Z,21.08
2022-09-04T06:52:54.554Z,21.28
2022-09-04T06:53:57.556Z,21.56
2022-09-04T06:54:54.428Z,21.59
2022-09-04T06:55:54.467Z,21.77
2022-09-04T06:56:56.369Z,21.92
2022-09-04T06:57:54.474Z,21.92
2022-09-04T06:58:56.975Z,22.06
2022-09-04T06:59:54.307Z,21.92
2022-09-04T07:00:54.480Z,22.04
2022-09-04T07:01:55.041Z,22.18
2022-09-04T07:02:54.834Z,22.31
2022-09-04T07:03:54.474Z,22.47
2022-09-04T07:04:57.279Z,22.47
2022-09-04T07:05:54.512Z,22.55
2022-09-04T07:06:54.504Z,22.56
2022-09-04T07:07:54.491Z,22.67
2022-09-04T07:08:54.498Z,22.86
2022-09-04T07:09:56.754Z,22.95
2022-09-04T07:10:54.977Z,23.01
2022-09-04T07:11:54.509Z,23.11
2022-09-04T07:12:54.533Z,23.14
2022-09-04T07:13:57.006Z,23.28
2022-09-04T07:14:54.497Z,23.2
2022-09-04T07:15:57.558Z,23.21
2022-09-04T07:16:54.509Z,23.47
2022-09-04T07:18:03.410Z,23.48
2022-09-04T07:18:54.518Z,23.25
2022-09-04T07:19:54.516Z,23.58
2022-09-04T07:20:54.540Z,23.64
2022-09-04T07:21:54.529Z,23.76
2022-09-04T07:22:54.516Z,23.99
2022-09-04T07:23:57.829Z,23.89
2022-09-04T07:24:54.541Z,23.94
2022-09-04T07:25:54.556Z,24.06
2022-09-04T07:26:57.316Z,24.06
2022-09-04T07:27:54.526Z,24.13
2022-09-04T07:28:54.463Z,24.28
2022-09-04T07:29:54.526Z,24.34
2022-09-04T07:30:54.580Z,24.28
2022-09-04T07:31:57.586Z,24.29
2022-09-04T07:32:54.538Z,24.43
2022-09-04T07:33:54.555Z,24.32
2022-09-04T07:34:54.542Z,24.46
2022-09-04T07:35:54.577Z,24.56
2022-09-04T07:36:54.541Z,24.56
2022-09-04T07:37:57.324Z,24.74
2022-09-04T07:38:55.370Z,24.65
2022-09-04T07:39:55.862Z,24.69
2022-09-04T07:40:54.565Z,24.81
2022-09-04T07:41:54.558Z,24.75
2022-09-04T07:42:57.195Z,24.96
2022-09-04T07:43:59.197Z,24.92
2022-09-04T07:44:54.561Z,24.94
2022-09-04T07:45:54.746Z,24.86
2022-09-04T07:46:54.569Z,24.79
2022-09-04T07:47:54.561Z,24.86
2022-09-04T07:48:57.565Z,24.88
2022-09-04T07:49:54.564Z,24.62
2022-09-04T07:50:54.831Z,24.62
2022-09-04T07:51:58.033Z,24.86
2022-09-04T07:52:54.591Z,24.97
2022-09-04T07:53:57.535Z,25.15
2022-09-04T07:54:54.599Z,25.14
2022-09-04T07:55:55.079Z,25.06
2022-09-04T07:56:54.594Z,25.15
2022-09-04T07:57:54.588Z,25.18
2022-09-04T07:58:54.415Z,25.11
2022-09-04T07:59:54.582Z,25.15
2022-09-04T08:00:54.700Z,24.94
2022-09-04T08:01:54.914Z,25.04
2022-09-04T08:02:54.592Z,24.69
2022-09-04T08:03:58.839Z,24.55
2022-09-04T08:04:57.580Z,24.31
2022-09-04T08:05:54.613Z,24.28
2022-09-04T08:06:54.587Z,24.29
2022-09-04T08:07:54.612Z,24.13
2022-09-04T08:08:54.617Z,24.14
2022-09-04T08:09:54.603Z,24.01
2022-09-04T08:10:54.665Z,23.94
2022-09-04T08:11:54.603Z,23.94
2022-09-04T08:12:55.427Z,23.82
2022-09-04T08:13:54.606Z,23.14
2022-09-04T08:14:54.642Z,23.48
2022-09-04T08:15:59.356Z,23.54
2022-09-04T08:16:57.897Z,23.4
2022-09-04T08:17:54.618Z,23.37
2022-09-04T08:18:54.621Z,23.66
2022-09-04T08:19:54.456Z,23.76
2022-09-04T08:20:54.627Z,23.76
2022-09-04T08:21:54.632Z,23.74
2022-09-04T08:22:56.160Z,23.79
2022-09-04T08:23:54.632Z,23.74
2022-09-04T08:24:54.629Z,23.82
2022-09-04T08:25:54.657Z,23.77
2022-09-04T08:26:54.643Z,23.64
2022-09-04T08:27:54.643Z,23.69
2022-09-04T08:28:55.899Z,23.71
2022-09-04T08:29:54.636Z,23.73
2022-09-04T08:30:54.888Z,23.85
2022-09-04T08:31:54.646Z,23.82
2022-09-04T08:32:54.641Z,23.77
2022-09-04T08:33:54.649Z,23.91
2022-09-04T08:34:54.655Z,24.07
2022-09-04T08:35:54.658Z,24.29
2022-09-04T08:36:54.664Z,24.71
2022-09-04T08:37:54.640Z,24.85
2022-09-04T08:38:54.650Z,25
2022-09-04T08:39:54.930Z,25.21
2022-09-04T08:40:56.871Z,25.03
2022-09-04T08:41:54.657Z,25.16
2022-09-04T08:42:54.531Z,25.26
2022-09-04T08:43:54.657Z,25.43
2022-09-04T08:44:54.667Z,25.62
2022-09-04T08:45:54.713Z,25.48
2022-09-04T08:46:57.449Z,25.81
2022-09-04T08:47:55.079Z,25.91
2022-09-04T08:48:54.675Z,25.83
2022-09-04T08:49:54.570Z,25.77
2022-09-04T08:50:54.895Z,26.03
2022-09-04T08:51:55.422Z,26.23
2022-09-04T08:52:54.686Z,26.19
2022-09-04T08:53:54.682Z,26.23
2022-09-04T08:54:54.681Z,26.29
2022-09-04T08:55:54.691Z,26.55
2022-09-04T08:56:54.747Z,26.85
2022-09-04T08:57:54.521Z,26.76
2022-09-04T08:58:58.735Z,26.91
2022-09-04T08:59:54.550Z,26.83
2022-09-04T09:00:54.745Z,26.89
2022-09-04T09:01:54.807Z,26.86
2022-09-04T09:02:54.947Z,26.73
2022-09-04T09:03:54.717Z,26.76
2022-09-04T09:04:54.697Z,26.92
2022-09-04T09:05:54.708Z,26.86
2022-09-04T09:06:54.714Z,27
2022-09-04T09:07:54.703Z,27
2022-09-04T09:08:55.459Z,26.98
2022-09-04T09:09:57.476Z,27.23
2022-09-04T09:10:54.718Z,27.19
2022-09-04T09:11:54.730Z,27.22
2022-09-04T09:12:54.711Z,27.19
2022-09-04T09:13:56.784Z,27.15
2022-09-04T09:14:54.722Z,27.2
2022-09-04T09:15:54.721Z,27.22
2022-09-04T09:16:55.050Z,27.05
2022-09-04T09:17:54.735Z,27.22
2022-09-04T09:18:54.727Z,27.26
2022-09-04T09:19:55.174Z,27.41
2022-09-04T09:20:57.507Z,27.48
2022-09-04T09:21:54.825Z,27.61
2022-09-04T09:22:54.857Z,27.61
2022-09-04T09:23:54.734Z,27.81
2022-09-04T09:24:54.929Z,27.93
2022-09-04T09:25:54.799Z,27.63
2022-09-04T09:26:54.778Z,27.88
2022-09-04T09:27:54.775Z,27.93
2022-09-04T09:28:54.841Z,27.95
2022-09-04T09:29:54.755Z,28.15
2022-09-04T09:30:55.017Z,28.2
2022-09-04T09:32:03.514Z,28.09
2022-09-04T09:32:54.760Z,28.13
2022-09-04T09:33:54.765Z,28.23
2022-09-04T09:34:54.772Z,28.3
2022-09-04T09:35:54.779Z,28.13
2022-09-04T09:36:54.844Z,27.88
2022-09-04T09:37:54.765Z,28.23
2022-09-04T09:38:54.802Z,28.34
2022-09-04T09:39:55.013Z,28.25
2022-09-04T09:40:55.481Z,28.23
2022-09-04T09:41:54.726Z,28.45
2022-09-04T09:42:57.552Z,28.7
2022-09-04T09:43:54.776Z,28.4
2022-09-04T09:44:54.796Z,28.37
2022-09-04T09:45:55.099Z,28.57
2022-09-04T09:46:54.799Z,28.56
2022-09-04T09:47:55.784Z,28.75
2022-09-04T09:48:54.790Z,28.87
2022-09-04T09:49:54.999Z,28.96
2022-09-04T09:50:54.782Z,28.97
2022-09-04T09:51:54.813Z,28.94
2022-09-04T09:52:54.796Z,28.83
2022-09-04T09:53:57.821Z,29.02
2022-09-04T09:54:54.811Z,29.07
2022-09-04T09:55:54.829Z,29.21
2022-09-04T09:56:58.900Z,29.27
2022-09-04T09:57:54.810Z,29.35
2022-09-04T09:58:57.870Z,29.37
2022-09-04T09:59:54.917Z,29.28
2022-09-04T10:00:54.954Z,29.47
2022-09-04T10:01:54.869Z,29.57
2022-09-04T10:02:54.927Z,29.69
2022-09-04T10:03:54.821Z,29.86
2022-09-04T10:04:57.890Z,29.69
2022-09-04T10:05:54.831Z,29.59
2022-09-04T10:06:55.905Z,29.55
2022-09-04T10:07:54.990Z,29.42
2022-09-04T10:08:54.873Z,29.28
2022-09-04T10:09:57.637Z,29.34
2022-09-04T10:10:54.832Z,29.3
2022-09-04T10:11:54.839Z,29
2022-09-04T10:12:54.835Z,29.24
2022-09-04T10:13:54.844Z,29.22
2022-09-04T10:14:55.143Z,29.37
2022-09-04T10:15:57.883Z,29.34
2022-09-04T10:16:55.334Z,29.3
2022-09-04T10:17:54.879Z,29.22
2022-09-04T10:18:54.985Z,29.37
2022-09-04T10:19:54.864Z,29.68
2022-09-04T10:20:57.923Z,29.59
2022-09-04T10:21:54.873Z,29.77
2022-09-04T10:22:54.875Z,29.57
2022-09-04T10:23:54.862Z,29.4
2022-09-04T10:24:54.872Z,29.39
2022-09-04T10:25:54.867Z,29.49
2022-09-04T10:26:54.871Z,29.34
2022-09-04T10:27:54.951Z,29.53
2022-09-04T10:28:54.943Z,29.73
2022-09-04T10:29:54.885Z,29.59
2022-09-04T10:30:55.118Z,29.55
2022-09-04T10:31:57.945Z,29.68
2022-09-04T10:32:54.891Z,29.4
2022-09-04T10:33:54.883Z,29.8
2022-09-04T10:34:54.899Z,29.62
2022-09-04T10:35:54.892Z,29.89
2022-09-04T10:36:55.112Z,29.99
2022-09-04T10:37:54.916Z,29.89
2022-09-04T10:38:54.881Z,30.08
2022-09-04T10:39:55.186Z,29.89
2022-09-04T10:40:56.265Z,29.47
2022-09-04T10:41:54.892Z,29.84
2022-09-04T10:42:57.955Z,30.05
2022-09-04T10:43:55.081Z,29.96
2022-09-04T10:44:55.055Z,29.62
2022-09-04T10:45:55.132Z,29.28
2022-09-04T10:46:54.926Z,29.57
2022-09-04T10:47:54.937Z,29.64
2022-09-04T10:48:54.919Z,29.58
2022-09-04T10:49:54.916Z,29.64
2022-09-04T10:50:57.813Z,29.64
2022-09-04T10:51:54.795Z,29.8
2022-09-04T10:52:54.919Z,29.84
2022-09-04T10:53:54.746Z,29.73
2022-09-04T10:54:54.909Z,29.69
2022-09-04T10:55:54.914Z,29.34
2022-09-04T10:56:54.923Z,29.46
2022-09-04T10:57:55.413Z,29.34
2022-09-04T10:58:55.171Z,29.32
2022-09-04T11:00:01.127Z,29.44
2022-09-04T11:00:55.118Z,29.52
2022-09-04T11:01:55.050Z,29.73
2022-09-04T11:02:54.765Z,29.28
2022-09-04T11:03:54.934Z,29.28
2022-09-04T11:04:54.934Z,29.15
2022-09-04T11:05:55.521Z,29.43
2022-09-04T11:06:54.943Z,29.24
2022-09-04T11:07:54.944Z,29.43
2022-09-04T11:08:55.034Z,29.3
2022-09-04T11:09:54.955Z,29.31
2022-09-04T11:10:54.939Z,29.3
2022-09-04T11:11:54.942Z,29.12
2022-09-04T11:12:54.950Z,29.05
2022-09-04T11:13:56.114Z,29.4
2022-09-04T11:14:54.790Z,29.53
2022-09-04T11:15:54.967Z,29.09
2022-09-04T11:16:59.566Z,29.34
2022-09-04T11:17:55.426Z,28.94
2022-09-04T11:18:55.035Z,28.67
2022-09-04T11:19:54.966Z,28.87
2022-09-04T11:20:55.003Z,29.21
2022-09-04T11:21:54.970Z,29.27
2022-09-04T11:22:54.968Z,29.37
2022-09-04T11:23:55.269Z,29.42
2022-09-04T11:24:54.973Z,29.69
2022-09-04T11:25:57.815Z,29.76
2022-09-04T11:26:54.830Z,29.43
2022-09-04T11:27:54.976Z,29.77
2022-09-04T11:28:54.942Z,29.98
2022-09-04T11:29:54.983Z,29.81
2022-09-04T11:30:54.665Z,29.81
2022-09-04T11:31:54.967Z,29.71
2022-09-04T11:32:55.003Z,29.24
2022-09-04T11:33:54.993Z,29.44
2022-09-04T11:34:54.843Z,29.49
2022-09-04T11:35:54.830Z,29.3
2022-09-04T11:36:58.136Z,29.1
2022-09-04T11:38:00.244Z,28.97
2022-09-04T11:38:55.040Z,28.82
2022-09-04T11:39:55.252Z,28.82
2022-09-04T11:40:55.002Z,28.87
2022-09-04T11:41:55.021Z,29.06
2022-09-04T11:42:55.009Z,28.87
2022-09-04T11:43:55.010Z,28.72
2022-09-04T11:44:54.875Z,28.62
2022-09-04T11:45:54.997Z,28.46
2022-09-04T11:46:55.007Z,28.5
2022-09-04T11:47:57.952Z,28.84
2022-09-04T11:48:54.928Z,28.16
2022-09-04T11:49:54.774Z,28.23
2022-09-04T11:50:54.861Z,28.56
2022-09-04T11:51:54.859Z,28.43
2022-09-04T11:52:55.038Z,28.75
2022-09-04T11:53:54.883Z,28.84
2022-09-04T11:54:55.034Z,28.38
2022-09-04T11:55:57.432Z,28.75
2022-09-04T11:56:55.045Z,28.78
2022-09-04T11:57:54.876Z,28.93
2022-09-04T11:58:57.847Z,29.16
2022-09-04T11:59:54.889Z,29.1
2022-09-04T12:00:55.047Z,29.42
2022-09-04T12:01:55.032Z,29.13
2022-09-04T12:02:55.039Z,29.15
2022-09-04T12:03:55.014Z,29.22
2022-09-04T12:04:55.051Z,29.31
2022-09-04T12:05:55.065Z,29.16
2022-09-04T12:06:55.051Z,29.31
2022-09-04T12:07:54.741Z,29.44
2022-09-04T12:08:55.069Z,29.43
2022-09-04T12:09:58.121Z,29.31
2022-09-04T12:10:55.055Z,29.22
2022-09-04T12:11:55.445Z,29.43
2022-09-04T12:12:55.076Z,29.55
2022-09-04T12:13:54.936Z,29.53
2022-09-04T12:14:55.536Z,29.27
2022-09-04T12:15:55.067Z,29.31
2022-09-04T12:16:55.365Z,29.35
2022-09-04T12:17:55.083Z,29.46
2022-09-04T12:18:55.097Z,29.18
2022-09-04T12:19:55.077Z,29.28
2022-09-04T12:20:58.188Z,28.82
2022-09-04T12:21:55.084Z,29.18
2022-09-04T12:22:54.917Z,29.21
2022-09-04T12:23:55.104Z,29.05
2022-09-04T12:24:55.085Z,28.97
2022-09-04T12:25:58.399Z,28.62
2022-09-04T12:27:04.351Z,28.41
2022-09-04T12:27:55.092Z,28.82
2022-09-04T12:28:55.142Z,29.18
2022-09-04T12:29:55.099Z,29.21
2022-09-04T12:30:55.097Z,29.35
2022-09-04T12:31:58.971Z,29.42
2022-09-04T12:32:55.111Z,29.32
2022-09-04T12:33:55.135Z,29.47
2022-09-04T12:34:55.109Z,29.53
2022-09-04T12:35:55.108Z,29.53
2022-09-04T12:36:58.730Z,29.53
2022-09-04T12:42:57.884Z,29.52
2022-09-04T12:43:55.131Z,29.43
2022-09-04T12:44:55.132Z,29.65
2022-09-04T12:45:55.453Z,29.68
2022-09-04T12:46:54.971Z,29.69
2022-09-04T12:48:01.766Z,29.84
2022-09-04T12:48:55.154Z,29.87
2022-09-04T12:49:55.173Z,30.13
2022-09-04T12:50:55.143Z,30.02
2022-09-04T12:51:55.182Z,30.02
2022-09-04T12:52:55.146Z,29.47
2022-09-04T12:54:00.706Z,29.83
2022-09-04T12:54:55.155Z,30.05
2022-09-04T12:55:55.157Z,30.06
2022-09-04T12:56:55.160Z,29.99
2022-09-04T12:57:55.151Z,29.86
2022-09-04T12:58:57.043Z,29.8
2022-09-04T12:59:55.157Z,29.71
2022-09-04T13:00:55.708Z,29.83
2022-09-04T13:01:55.778Z,29.99